sensor_id;sensor_type;location;lat;lon;timestamp;P1;durP1;ratioP1;P2;durP2;ratioP2
32491;SDS011;20605;49.742;18.802;2023-04-01T00:00:22;5.50;;;2.90;;
32491;SDS011;20605;49.742;18.802;2023-04-01T00:02:48;5.80;;;4.00;;
32491;SDS011;20605;49.742;18.802;2023-04-01T00:05:14;19.30;;;13.00;;
32491;SDS011;20605;49.742;18.802;2023-04-01T00:07:41;8.30;;;5.40;;
32491;SDS011;20605;49.742;18.802;2023-04-01T00:10:09;4.10;;;2.60;;
32491;SDS011;20605;49.742;18.802;2023-04-01T00:12:37;3.70;;;2.30;;
32491;SDS011;20605;49.742;18.802;2023-04-01T00:15:04;5.70;;;2.70;;
32491;SDS011;20605;49.742;18.802;2023-04-01T00:17:33;4.60;;;2.40;;
32491;SDS011;20605;49.742;18.802;2023-04-01T00:19:59;4.70;;;2.40;;
32491;SDS011;20605;49.742;18.802;2023-04-01T00:22:26;5.10;;;3.00;;
32491;SDS011;20605;49.742;18.802;2023-04-01T00:24:52;5.80;;;2.80;;
32491;SDS011;20605;49.742;18.802;2023-04-01T00:27:19;4.20;;;2.10;;
32491;SDS011;20605;49.742;18.802;2023-04-01T00:29:45;3.10;;;2.00;;
32491;SDS011;20605;49.742;18.802;2023-04-01T00:35:14;3.90;;;1.80;;
32491;SDS011;20605;49.742;18.802;2023-04-01T00:37:40;2.60;;;1.60;;
32491;SDS011;20605;49.742;18.802;2023-04-01T00:40:06;6.40;;;2.30;;
32491;SDS011;20605;49.742;18.802;2023-04-01T00:42:46;5.40;;;1.50;;
32491;SDS011;20605;49.742;18.802;2023-04-01T00:47:53;6.80;;;2.20;;
32491;SDS011;20605;49.742;18.802;2023-04-01T00:50:21;4.00;;;1.70;;
32491;SDS011;20605;49.742;18.802;2023-04-01T00:52:50;2.70;;;1.80;;
32491;SDS011;20605;49.742;18.802;2023-04-01T00:55:18;3.90;;;2.10;;
32491;SDS011;20605;49.742;18.802;2023-04-01T00:57:46;5.30;;;2.50;;
32491;SDS011;20605;49.742;18.802;2023-04-01T01:00:17;4.90;;;2.40;;
32491;SDS011;20605;49.742;18.802;2023-04-01T01:02:44;3.80;;;2.00;;
32491;SDS011;20605;49.742;18.802;2023-04-01T01:05:12;4.40;;;2.10;;
32491;SDS011;20605;49.742;18.802;2023-04-01T01:07:44;2.50;;;1.60;;
32491;SDS011;20605;49.742;18.802;2023-04-01T01:15:49;5.40;;;2.30;;
32491;SDS011;20605;49.742;18.802;2023-04-01T01:18:35;4.30;;;2.20;;
32491;SDS011;20605;49.742;18.802;2023-04-01T01:37:33;4.90;;;1.50;;
32491;SDS011;20605;49.742;18.802;2023-04-01T01:40:02;2.60;;;1.60;;
32491;SDS011;20605;49.742;18.802;2023-04-01T01:42:33;6.80;;;2.10;;
32491;SDS011;20605;49.742;18.802;2023-04-01T01:45:03;3.40;;;1.80;;
32491;SDS011;20605;49.742;18.802;2023-04-01T01:47:32;4.10;;;2.00;;
32491;SDS011;20605;49.742;18.802;2023-04-01T01:50:01;4.60;;;1.80;;
32491;SDS011;20605;49.742;18.802;2023-04-01T01:52:30;2.80;;;1.80;;
32491;SDS011;20605;49.742;18.802;2023-04-01T01:54:57;8.80;;;2.30;;
32491;SDS011;20605;49.742;18.802;2023-04-01T01:57:30;2.90;;;1.80;;
32491;SDS011;20605;49.742;18.802;2023-04-01T02:00:08;5.70;;;2.00;;
32491;SDS011;20605;49.742;18.802;2023-04-01T02:02:40;3.60;;;1.90;;
32491;SDS011;20605;49.742;18.802;2023-04-01T02:05:10;4.60;;;2.00;;
32491;SDS011;20605;49.742;18.802;2023-04-01T02:07:41;6.40;;;2.20;;
32491;SDS011;20605;49.742;18.802;2023-04-01T02:10:12;4.90;;;2.30;;
32491;SDS011;20605;49.742;18.802;2023-04-01T02:12:39;3.50;;;2.10;;
32491;SDS011;20605;49.742;18.802;2023-04-01T02:15:09;3.70;;;1.70;;
32491;SDS011;20605;49.742;18.802;2023-04-01T02:17:43;4.60;;;1.80;;
32491;SDS011;20605;49.742;18.802;2023-04-01T02:20:16;4.10;;;2.10;;
32491;SDS011;20605;49.742;18.802;2023-04-01T02:22:48;3.50;;;1.60;;
32491;SDS011;20605;49.742;18.802;2023-04-01T02:25:20;3.50;;;2.00;;
32491;SDS011;20605;49.742;18.802;2023-04-01T02:27:50;2.60;;;1.80;;
32491;SDS011;20605;49.742;18.802;2023-04-01T02:30:18;4.10;;;2.20;;
32491;SDS011;20605;49.742;18.802;2023-04-01T02:32:45;5.70;;;2.30;;
32491;SDS011;20605;49.742;18.802;2023-04-01T02:35:13;7.10;;;2.00;;
32491;SDS011;20605;49.742;18.802;2023-04-01T02:37:44;4.70;;;2.00;;
32491;SDS011;20605;49.742;18.802;2023-04-01T02:40:15;2.90;;;1.60;;
32491;SDS011;20605;49.742;18.802;2023-04-01T02:42:43;5.20;;;2.20;;
32491;SDS011;20605;49.742;18.802;2023-04-01T02:45:10;3.10;;;2.00;;
32491;SDS011;20605;49.742;18.802;2023-04-01T02:47:36;3.30;;;1.70;;
32491;SDS011;20605;49.742;18.802;2023-04-01T02:50:02;3.60;;;1.90;;
32491;SDS011;20605;49.742;18.802;2023-04-01T02:52:28;4.00;;;1.80;;
32491;SDS011;20605;49.742;18.802;2023-04-01T02:54:56;3.60;;;1.60;;
32491;SDS011;20605;49.742;18.802;2023-04-01T02:57:22;2.60;;;1.80;;
32491;SDS011;20605;49.742;18.802;2023-04-01T02:59:48;4.00;;;1.80;;
32491;SDS011;20605;49.742;18.802;2023-04-01T03:02:14;3.00;;;2.00;;
32491;SDS011;20605;49.742;18.802;2023-04-01T03:04:41;3.70;;;1.80;;
32491;SDS011;20605;49.742;18.802;2023-04-01T03:07:08;2.00;;;1.80;;
32491;SDS011;20605;49.742;18.802;2023-04-01T03:09:35;2.90;;;1.70;;
32491;SDS011;20605;49.742;18.802;2023-04-01T03:12:02;5.20;;;1.70;;
32491;SDS011;20605;49.742;18.802;2023-04-01T03:14:31;1.50;;;1.30;;
32491;SDS011;20605;49.742;18.802;2023-04-01T03:16:57;2.10;;;1.50;;
32491;SDS011;20605;49.742;18.802;2023-04-01T03:19:22;2.90;;;1.80;;
32491;SDS011;20605;49.742;18.802;2023-04-01T03:21:49;3.70;;;1.50;;
32491;SDS011;20605;49.742;18.802;2023-04-01T03:24:15;3.20;;;1.60;;
32491;SDS011;20605;49.742;18.802;2023-04-01T03:26:41;2.00;;;1.40;;
32491;SDS011;20605;49.742;18.802;2023-04-01T03:29:07;3.80;;;1.70;;
32491;SDS011;20605;49.742;18.802;2023-04-01T03:31:33;4.50;;;2.00;;
32491;SDS011;20605;49.742;18.802;2023-04-01T03:33:59;3.40;;;2.00;;
32491;SDS011;20605;49.742;18.802;2023-04-01T03:36:26;3.10;;;1.50;;
32491;SDS011;20605;49.742;18.802;2023-04-01T03:38:52;2.50;;;1.40;;
32491;SDS011;20605;49.742;18.802;2023-04-01T03:41:21;3.80;;;1.70;;
32491;SDS011;20605;49.742;18.802;2023-04-01T03:43:47;4.10;;;1.60;;
32491;SDS011;20605;49.742;18.802;2023-04-01T03:46:17;4.00;;;1.80;;
32491;SDS011;20605;49.742;18.802;2023-04-01T03:48:45;3.70;;;1.70;;
32491;SDS011;20605;49.742;18.802;2023-04-01T03:51:11;3.90;;;1.90;;
32491;SDS011;20605;49.742;18.802;2023-04-01T03:53:37;4.40;;;2.20;;
32491;SDS011;20605;49.742;18.802;2023-04-01T03:56:06;3.30;;;1.70;;
32491;SDS011;20605;49.742;18.802;2023-04-01T03:58:34;4.70;;;1.90;;
32491;SDS011;20605;49.742;18.802;2023-04-01T04:01:01;5.10;;;2.00;;
32491;SDS011;20605;49.742;18.802;2023-04-01T04:03:27;4.10;;;1.80;;
32491;SDS011;20605;49.742;18.802;2023-04-01T04:05:53;6.20;;;2.40;;
32491;SDS011;20605;49.742;18.802;2023-04-01T04:08:21;3.10;;;1.80;;
32491;SDS011;20605;49.742;18.802;2023-04-01T04:10:47;2.70;;;1.50;;
32491;SDS011;20605;49.742;18.802;2023-04-01T04:13:13;3.10;;;1.70;;
32491;SDS011;20605;49.742;18.802;2023-04-01T04:15:45;4.50;;;2.20;;
32491;SDS011;20605;49.742;18.802;2023-04-01T04:18:10;3.60;;;2.00;;
32491;SDS011;20605;49.742;18.802;2023-04-01T04:20:36;5.10;;;1.90;;
32491;SDS011;20605;49.742;18.802;2023-04-01T04:23:08;4.00;;;1.80;;
32491;SDS011;20605;49.742;18.802;2023-04-01T04:25:34;3.80;;;2.20;;
32491;SDS011;20605;49.742;18.802;2023-04-01T04:28:00;4.10;;;2.40;;
32491;SDS011;20605;49.742;18.802;2023-04-01T04:30:25;4.40;;;3.00;;
32491;SDS011;20605;49.742;18.802;2023-04-01T04:32:51;4.80;;;2.40;;
32491;SDS011;20605;49.742;18.802;2023-04-01T04:35:17;4.60;;;2.20;;
32491;SDS011;20605;49.742;18.802;2023-04-01T04:37:43;4.40;;;2.60;;
32491;SDS011;20605;49.742;18.802;2023-04-01T04:40:09;4.40;;;2.30;;
32491;SDS011;20605;49.742;18.802;2023-04-01T04:42:35;3.30;;;2.10;;
32491;SDS011;20605;49.742;18.802;2023-04-01T04:45:05;4.70;;;2.40;;
32491;SDS011;20605;49.742;18.802;2023-04-01T04:47:32;2.80;;;2.10;;
32491;SDS011;20605;49.742;18.802;2023-04-01T04:49:57;3.70;;;2.40;;
32491;SDS011;20605;49.742;18.802;2023-04-01T04:52:26;5.40;;;2.80;;
32491;SDS011;20605;49.742;18.802;2023-04-01T04:54:52;4.50;;;3.10;;
32491;SDS011;20605;49.742;18.802;2023-04-01T04:57:18;7.20;;;4.10;;
32491;SDS011;20605;49.742;18.802;2023-04-01T04:59:49;6.50;;;3.70;;
32491;SDS011;20605;49.742;18.802;2023-04-01T05:02:23;5.60;;;2.80;;
32491;SDS011;20605;49.742;18.802;2023-04-01T05:04:50;4.30;;;2.60;;
32491;SDS011;20605;49.742;18.802;2023-04-01T05:07:16;6.20;;;2.90;;
32491;SDS011;20605;49.742;18.802;2023-04-01T05:09:42;5.90;;;4.00;;
32491;SDS011;20605;49.742;18.802;2023-04-01T05:12:08;6.00;;;2.90;;
32491;SDS011;20605;49.742;18.802;2023-04-01T05:14:54;6.60;;;2.30;;
32491;SDS011;20605;49.742;18.802;2023-04-01T05:17:20;3.90;;;2.10;;
32491;SDS011;20605;49.742;18.802;2023-04-01T05:19:46;3.90;;;2.60;;
32491;SDS011;20605;49.742;18.802;2023-04-01T05:22:14;3.70;;;2.40;;
32491;SDS011;20605;49.742;18.802;2023-04-01T05:24:42;6.20;;;3.50;;
32491;SDS011;20605;49.742;18.802;2023-04-01T05:27:09;4.20;;;2.60;;
32491;SDS011;20605;49.742;18.802;2023-04-01T05:29:39;6.30;;;3.20;;
32491;SDS011;20605;49.742;18.802;2023-04-01T05:32:06;8.10;;;3.50;;
32491;SDS011;20605;49.742;18.802;2023-04-01T05:34:41;8.70;;;3.70;;
32491;SDS011;20605;49.742;18.802;2023-04-01T05:37:08;5.90;;;3.00;;
32491;SDS011;20605;49.742;18.802;2023-04-01T05:39:38;3.40;;;2.70;;
32491;SDS011;20605;49.742;18.802;2023-04-01T05:42:07;6.90;;;3.60;;
32491;SDS011;20605;49.742;18.802;2023-04-01T05:44:39;5.10;;;2.50;;
32491;SDS011;20605;49.742;18.802;2023-04-01T05:47:05;6.70;;;2.80;;
32491;SDS011;20605;49.742;18.802;2023-04-01T05:49:32;3.70;;;1.80;;
32491;SDS011;20605;49.742;18.802;2023-04-01T05:52:01;3.30;;;2.10;;
32491;SDS011;20605;49.742;18.802;2023-04-01T05:54:29;3.40;;;2.00;;
32491;SDS011;20605;49.742;18.802;2023-04-01T05:56:56;5.40;;;2.30;;
32491;SDS011;20605;49.742;18.802;2023-04-01T05:59:22;5.40;;;2.50;;
32491;SDS011;20605;49.742;18.802;2023-04-01T06:01:48;2.80;;;2.00;;
32491;SDS011;20605;49.742;18.802;2023-04-01T06:04:16;4.70;;;2.20;;
32491;SDS011;20605;49.742;18.802;2023-04-01T06:06:44;3.20;;;2.10;;
32491;SDS011;20605;49.742;18.802;2023-04-01T06:09:17;3.00;;;2.20;;
32491;SDS011;20605;49.742;18.802;2023-04-01T06:11:59;3.50;;;2.10;;
32491;SDS011;20605;49.742;18.802;2023-04-01T06:14:36;3.30;;;2.00;;
32491;SDS011;20605;49.742;18.802;2023-04-01T06:17:52;2.30;;;1.90;;
32491;SDS011;20605;49.742;18.802;2023-04-01T06:21:13;2.40;;;2.00;;
32491;SDS011;20605;49.742;18.802;2023-04-01T06:26:39;5.20;;;2.60;;
32491;SDS011;20605;49.742;18.802;2023-04-01T06:29:50;4.90;;;2.70;;
32491;SDS011;20605;49.742;18.802;2023-04-01T06:32:51;6.90;;;3.60;;
32491;SDS011;20605;49.742;18.802;2023-04-01T06:38:29;5.00;;;2.30;;
32491;SDS011;20605;49.742;18.802;2023-04-01T06:41:54;3.10;;;2.00;;
32491;SDS011;20605;49.742;18.802;2023-04-01T06:44:16;3.00;;;2.00;;
32491;SDS011;20605;49.742;18.802;2023-04-01T06:57:04;3.20;;;2.20;;
32491;SDS011;20605;49.742;18.802;2023-04-01T06:59:44;2.90;;;2.20;;
32491;SDS011;20605;49.742;18.802;2023-04-01T07:02:16;7.10;;;2.30;;
32491;SDS011;20605;49.742;18.802;2023-04-01T07:05:07;3.70;;;2.10;;
32491;SDS011;20605;49.742;18.802;2023-04-01T07:07:47;4.20;;;2.50;;
32491;SDS011;20605;49.742;18.802;2023-04-01T07:10:34;5.30;;;3.00;;
32491;SDS011;20605;49.742;18.802;2023-04-01T07:16:21;3.80;;;2.40;;
32491;SDS011;20605;49.742;18.802;2023-04-01T07:19:05;3.80;;;2.10;;
32491;SDS011;20605;49.742;18.802;2023-04-01T07:22:42;2.30;;;2.00;;
32491;SDS011;20605;49.742;18.802;2023-04-01T07:25:14;3.20;;;2.10;;
32491;SDS011;20605;49.742;18.802;2023-04-01T07:27:46;3.60;;;2.00;;
32491;SDS011;20605;49.742;18.802;2023-04-01T07:30:13;3.10;;;1.90;;
32491;SDS011;20605;49.742;18.802;2023-04-01T07:32:47;3.30;;;2.30;;
32491;SDS011;20605;49.742;18.802;2023-04-01T07:38:22;2.00;;;1.80;;
32491;SDS011;20605;49.742;18.802;2023-04-01T07:41:17;2.90;;;2.20;;
32491;SDS011;20605;49.742;18.802;2023-04-01T07:44:07;3.50;;;2.90;;
32491;SDS011;20605;49.742;18.802;2023-04-01T07:52:01;4.70;;;3.40;;
32491;SDS011;20605;49.742;18.802;2023-04-01T07:54:50;5.90;;;3.50;;
32491;SDS011;20605;49.742;18.802;2023-04-01T07:57:43;4.30;;;2.70;;
32491;SDS011;20605;49.742;18.802;2023-04-01T08:03:43;3.10;;;1.90;;
32491;SDS011;20605;49.742;18.802;2023-04-01T08:08:56;3.30;;;1.90;;
32491;SDS011;20605;49.742;18.802;2023-04-01T08:12:19;4.10;;;2.80;;
32491;SDS011;20605;49.742;18.802;2023-04-01T08:15:14;3.40;;;2.60;;
32491;SDS011;20605;49.742;18.802;2023-04-01T08:21:32;10.20;;;5.70;;
32491;SDS011;20605;49.742;18.802;2023-04-01T08:23:54;14.90;;;11.00;;
32491;SDS011;20605;49.742;18.802;2023-04-01T08:26:42;8.90;;;4.80;;
32491;SDS011;20605;49.742;18.802;2023-04-01T08:29:17;8.60;;;6.60;;
32491;SDS011;20605;49.742;18.802;2023-04-01T08:31:58;4.40;;;3.20;;
32491;SDS011;20605;49.742;18.802;2023-04-01T08:34:47;4.10;;;3.40;;
32491;SDS011;20605;49.742;18.802;2023-04-01T08:37:30;3.20;;;2.20;;
32491;SDS011;20605;49.742;18.802;2023-04-01T08:40:49;1.90;;;1.60;;
32491;SDS011;20605;49.742;18.802;2023-04-01T08:54:42;3.20;;;2.10;;
32491;SDS011;20605;49.742;18.802;2023-04-01T09:12:31;32.30;;;16.40;;
32491;SDS011;20605;49.742;18.802;2023-04-01T09:15:13;28.30;;;14.90;;
32491;SDS011;20605;49.742;18.802;2023-04-01T09:20:19;27.30;;;14.30;;
32491;SDS011;20605;49.742;18.802;2023-04-01T09:43:16;68.30;;;36.40;;
32491;SDS011;20605;49.742;18.802;2023-04-01T09:48:51;47.00;;;25.20;;
32491;SDS011;20605;49.742;18.802;2023-04-01T09:54:37;50.60;;;26.30;;
32491;SDS011;20605;49.742;18.802;2023-04-01T09:57:38;9.40;;;7.70;;
32491;SDS011;20605;49.742;18.802;2023-04-01T10:09:48;7.40;;;6.70;;
32491;SDS011;20605;49.742;18.802;2023-04-01T10:21:33;7.10;;;6.40;;
32491;SDS011;20605;49.742;18.802;2023-04-01T10:41:18;5.30;;;4.60;;
32491;SDS011;20605;49.742;18.802;2023-04-01T10:45:13;5.40;;;4.10;;
32491;SDS011;20605;49.742;18.802;2023-04-01T11:12:08;7.20;;;5.60;;
32491;SDS011;20605;49.742;18.802;2023-04-01T11:31:41;14.10;;;10.90;;
32491;SDS011;20605;49.742;18.802;2023-04-01T11:34:21;18.80;;;13.70;;
32491;SDS011;20605;49.742;18.802;2023-04-01T11:43:16;7.70;;;6.40;;
32491;SDS011;20605;49.742;18.802;2023-04-01T11:46:11;9.80;;;6.50;;
32491;SDS011;20605;49.742;18.802;2023-04-01T11:51:31;3.80;;;2.90;;
32491;SDS011;20605;49.742;18.802;2023-04-01T11:54:06;4.00;;;3.40;;
32491;SDS011;20605;49.742;18.802;2023-04-01T12:02:11;5.40;;;3.90;;
32491;SDS011;20605;49.742;18.802;2023-04-01T12:08:04;6.10;;;3.80;;
32491;SDS011;20605;49.742;18.802;2023-04-01T12:10:44;8.70;;;6.00;;
32491;SDS011;20605;49.742;18.802;2023-04-01T12:23:03;4.80;;;4.30;;
32491;SDS011;20605;49.742;18.802;2023-04-01T12:27:52;8.60;;;6.80;;
32491;SDS011;20605;49.742;18.802;2023-04-01T12:41:39;14.30;;;8.90;;
32491;SDS011;20605;49.742;18.802;2023-04-01T12:44:38;8.40;;;6.30;;
32491;SDS011;20605;49.742;18.802;2023-04-01T12:49:55;51.50;;;33.90;;
32491;SDS011;20605;49.742;18.802;2023-04-01T12:55:29;19.30;;;12.70;;
32491;SDS011;20605;49.742;18.802;2023-04-01T12:58:03;25.70;;;17.20;;
32491;SDS011;20605;49.742;18.802;2023-04-01T13:00:36;13.20;;;10.40;;
32491;SDS011;20605;49.742;18.802;2023-04-01T13:03:17;15.30;;;9.70;;
32491;SDS011;20605;49.742;18.802;2023-04-01T13:11:30;11.00;;;7.10;;
32491;SDS011;20605;49.742;18.802;2023-04-01T13:16:31;11.40;;;7.40;;
32491;SDS011;20605;49.742;18.802;2023-04-01T13:24:31;6.40;;;5.00;;
32491;SDS011;20605;49.742;18.802;2023-04-01T13:35:13;6.10;;;4.80;;
32491;SDS011;20605;49.742;18.802;2023-04-01T13:37:52;10.70;;;6.10;;
32491;SDS011;20605;49.742;18.802;2023-04-01T13:43:19;8.40;;;5.90;;
32491;SDS011;20605;49.742;18.802;2023-04-01T13:48:48;7.90;;;5.70;;
32491;SDS011;20605;49.742;18.802;2023-04-01T14:00:16;10.00;;;6.20;;
32491;SDS011;20605;49.742;18.802;2023-04-01T14:02:57;9.20;;;6.30;;
32491;SDS011;20605;49.742;18.802;2023-04-01T14:08:19;5.70;;;3.80;;
32491;SDS011;20605;49.742;18.802;2023-04-01T14:25:00;8.90;;;6.30;;
32491;SDS011;20605;49.742;18.802;2023-04-01T14:27:37;7.10;;;4.00;;
32491;SDS011;20605;49.742;18.802;2023-04-01T14:30:30;11.30;;;7.00;;
32491;SDS011;20605;49.742;18.802;2023-04-01T14:39:00;6.90;;;4.80;;
32491;SDS011;20605;49.742;18.802;2023-04-01T14:41:31;9.10;;;5.80;;
32491;SDS011;20605;49.742;18.802;2023-04-01T14:49:46;9.30;;;6.10;;
32491;SDS011;20605;49.742;18.802;2023-04-01T14:52:30;12.10;;;8.50;;
32491;SDS011;20605;49.742;18.802;2023-04-01T14:55:02;7.50;;;5.50;;
32491;SDS011;20605;49.742;18.802;2023-04-01T14:58:04;9.00;;;7.40;;
32491;SDS011;20605;49.742;18.802;2023-04-01T15:00:47;7.00;;;4.90;;
32491;SDS011;20605;49.742;18.802;2023-04-01T15:06:35;10.60;;;7.70;;
32491;SDS011;20605;49.742;18.802;2023-04-01T15:12:26;7.60;;;5.70;;
32491;SDS011;20605;49.742;18.802;2023-04-01T15:15:01;5.30;;;3.50;;
32491;SDS011;20605;49.742;18.802;2023-04-01T15:20:43;4.50;;;3.20;;
32491;SDS011;20605;49.742;18.802;2023-04-01T15:31:36;5.10;;;3.40;;
32491;SDS011;20605;49.742;18.802;2023-04-01T15:39:24;4.00;;;3.30;;
32491;SDS011;20605;49.742;18.802;2023-04-01T15:42:21;3.80;;;3.20;;
32491;SDS011;20605;49.742;18.802;2023-04-01T15:58:48;6.20;;;4.80;;
32491;SDS011;20605;49.742;18.802;2023-04-01T16:07:10;6.20;;;3.80;;
32491;SDS011;20605;49.742;18.802;2023-04-01T16:12:56;36.60;;;27.70;;
32491;SDS011;20605;49.742;18.802;2023-04-01T16:15:27;55.40;;;39.70;;
32491;SDS011;20605;49.742;18.802;2023-04-01T16:18:07;29.60;;;25.00;;
32491;SDS011;20605;49.742;18.802;2023-04-01T16:37:36;76.50;;;50.60;;
32491;SDS011;20605;49.742;18.802;2023-04-01T16:40:13;49.30;;;35.10;;
32491;SDS011;20605;49.742;18.802;2023-04-01T16:42:53;25.40;;;18.40;;
32491;SDS011;20605;49.742;18.802;2023-04-01T16:56:54;71.00;;;28.30;;
32491;SDS011;20605;49.742;18.802;2023-04-01T17:02:20;209.10;;;71.10;;
32491;SDS011;20605;49.742;18.802;2023-04-01T17:07:39;75.90;;;28.00;;
32491;SDS011;20605;49.742;18.802;2023-04-01T17:10:53;173.80;;;75.90;;
32491;SDS011;20605;49.742;18.802;2023-04-01T17:26:45;42.20;;;26.80;;
32491;SDS011;20605;49.742;18.802;2023-04-01T17:40:24;41.00;;;29.20;;
32491;SDS011;20605;49.742;18.802;2023-04-01T17:45:48;29.00;;;20.40;;
32491;SDS011;20605;49.742;18.802;2023-04-01T17:48:31;19.00;;;13.10;;
32491;SDS011;20605;49.742;18.802;2023-04-01T17:51:17;24.10;;;14.00;;
32491;SDS011;20605;49.742;18.802;2023-04-01T17:54:04;21.30;;;13.60;;
32491;SDS011;20605;49.742;18.802;2023-04-01T17:56:49;42.10;;;34.80;;
32491;SDS011;20605;49.742;18.802;2023-04-01T17:59:32;22.60;;;13.90;;
32491;SDS011;20605;49.742;18.802;2023-04-01T18:15:45;69.90;;;42.30;;
32491;SDS011;20605;49.742;18.802;2023-04-01T18:23:53;41.20;;;18.20;;
32491;SDS011;20605;49.742;18.802;2023-04-01T18:26:26;46.60;;;21.90;;
32491;SDS011;20605;49.742;18.802;2023-04-01T18:28:56;51.10;;;27.40;;
32491;SDS011;20605;49.742;18.802;2023-04-01T18:31:45;183.90;;;63.40;;
32491;SDS011;20605;49.742;18.802;2023-04-01T18:37:00;200.60;;;67.40;;
32491;SDS011;20605;49.742;18.802;2023-04-01T18:39:45;288.90;;;91.00;;
32491;SDS011;20605;49.742;18.802;2023-04-01T18:42:30;104.00;;;42.10;;
32491;SDS011;20605;49.742;18.802;2023-04-01T18:48:00;33.30;;;21.30;;
32491;SDS011;20605;49.742;18.802;2023-04-01T18:50:53;31.70;;;21.80;;
32491;SDS011;20605;49.742;18.802;2023-04-01T18:59:03;30.80;;;23.60;;
32491;SDS011;20605;49.742;18.802;2023-04-01T19:01:36;100.30;;;42.70;;
32491;SDS011;20605;49.742;18.802;2023-04-01T19:06:52;117.70;;;61.80;;
32491;SDS011;20605;49.742;18.802;2023-04-01T19:18:06;44.50;;;26.10;;
32491;SDS011;20605;49.742;18.802;2023-04-01T19:20:48;45.10;;;23.70;;
32491;SDS011;20605;49.742;18.802;2023-04-01T19:26:40;62.00;;;34.90;;
32491;SDS011;20605;49.742;18.802;2023-04-01T19:37:39;67.90;;;36.60;;
32491;SDS011;20605;49.742;18.802;2023-04-01T19:45:43;182.10;;;66.20;;
32491;SDS011;20605;49.742;18.802;2023-04-01T19:51:16;114.90;;;45.30;;
32491;SDS011;20605;49.742;18.802;2023-04-01T19:53:59;77.50;;;32.10;;
32491;SDS011;20605;49.742;18.802;2023-04-01T19:56:33;24.10;;;13.20;;
32491;SDS011;20605;49.742;18.802;2023-04-01T19:59:13;23.10;;;11.90;;
32491;SDS011;20605;49.742;18.802;2023-04-01T20:02:03;33.90;;;;;
32491;SDS011;20605;49.742;18.802;2023-04-01T20:04:48;94.70;;;40.90;;
32491;SDS011;20605;49.742;18.802;2023-04-01T20:10:10;96.50;;;51.90;;
32491;SDS011;20605;49.742;18.802;2023-04-01T20:15:31;43.60;;;27.50;;
32491;SDS011;20605;49.742;18.802;2023-04-01T20:21:03;83.20;;;51.60;;
32491;SDS011;20605;49.742;18.802;2023-04-01T20:26:40;29.40;;;21.40;;
32491;SDS011;20605;49.742;18.802;2023-04-01T20:31:50;33.50;;;22.40;;
32491;SDS011;20605;49.742;18.802;2023-04-01T20:40:47;41.80;;;22.20;;
32491;SDS011;20605;49.742;18.802;2023-04-01T20:46:23;31.20;;;18.30;;
32491;SDS011;20605;49.742;18.802;2023-04-01T20:51:32;54.10;;;30.70;;
32491;SDS011;20605;49.742;18.802;2023-04-01T21:10:43;23.70;;;19.80;;
32491;SDS011;20605;49.742;18.802;2023-04-01T21:16:30;22.70;;;17.20;;
32491;SDS011;20605;49.742;18.802;2023-04-01T21:30:29;16.80;;;12.90;;
32491;SDS011;20605;49.742;18.802;2023-04-01T21:35:44;14.00;;;10.60;;
32491;SDS011;20605;49.742;18.802;2023-04-01T21:44:10;46.80;;;26.70;;
32491;SDS011;20605;49.742;18.802;2023-04-01T22:03:43;38.00;;;22.70;;
32491;SDS011;20605;49.742;18.802;2023-04-01T22:06:38;59.30;;;29.10;;
32491;SDS011;20605;49.742;18.802;2023-04-01T22:09:10;35.40;;;19.70;;
32491;SDS011;20605;49.742;18.802;2023-04-01T22:11:58;30.10;;;17.10;;
32491;SDS011;20605;49.742;18.802;2023-04-01T22:14:51;54.60;;;26.70;;
32491;SDS011;20605;49.742;18.802;2023-04-01T22:20:14;20.80;;;14.00;;
32491;SDS011;20605;49.742;18.802;2023-04-01T22:23:22;15.60;;;11.80;;
32491;SDS011;20605;49.742;18.802;2023-04-01T22:28:24;13.60;;;10.20;;
32491;SDS011;20605;49.742;18.802;2023-04-01T22:30:55;15.60;;;10.20;;
32491;SDS011;20605;49.742;18.802;2023-04-01T22:47:38;10.80;;;8.60;;
32491;SDS011;20605;49.742;18.802;2023-04-01T22:50:35;10.80;;;8.80;;
32491;SDS011;20605;49.742;18.802;2023-04-01T22:56:12;11.70;;;8.30;;
32491;SDS011;20605;49.742;18.802;2023-04-01T22:58:43;12.40;;;9.50;;
32491;SDS011;20605;49.742;18.802;2023-04-01T23:01:17;15.30;;;10.30;;
32491;SDS011;20605;49.742;18.802;2023-04-01T23:03:50;16.80;;;11.00;;
32491;SDS011;20605;49.742;18.802;2023-04-01T23:06:19;17.50;;;12.40;;
32491;SDS011;20605;49.742;18.802;2023-04-01T23:09:02;16.30;;;12.00;;
32491;SDS011;20605;49.742;18.802;2023-04-01T23:14:41;23.80;;;16.90;;
32491;SDS011;20605;49.742;18.802;2023-04-01T23:20:12;23.00;;;15.70;;
32491;SDS011;20605;49.742;18.802;2023-04-01T23:28:44;26.00;;;16.50;;
32491;SDS011;20605;49.742;18.802;2023-04-01T23:36:46;43.00;;;26.50;;
32491;SDS011;20605;49.742;18.802;2023-04-01T23:39:23;23.20;;;15.20;;
32491;SDS011;20605;49.742;18.802;2023-04-01T23:42:18;21.10;;;14.80;;
32491;SDS011;20605;49.742;18.802;2023-04-01T23:44:48;25.10;;;15.50;;
32491;SDS011;20605;49.742;18.802;2023-04-01T23:47:38;19.00;;;14.40;;
32491;SDS011;20605;49.742;18.802;2023-04-01T23:50:07;17.50;;;14.20;;
32491;SDS011;20605;49.742;18.802;2023-04-01T23:52:47;18.10;;;13.60;;
